Scroll down
FLIGHT INFORMATION
United Airlines

UAL2380

At Arrival Gate

KSFO
 PHNL
DATE: 2019-12-01
GATE:  -
GATE DEPARTURE: 18:53
TAKEOFF: 19:05
DATE: 2019-12-02
GATE: 8
LANDING: 00:03
GATE ARRIVAL: 00:08
FLIGHT DATA
Crew: DAN DOWNS
Speed: 470 kts Altitude: 34000 ft
Stage Length: 2083 nm
Route: 
Block Time: 5.3 Flight Time: 5
Fuel Used: 31087 LB
TRACK DATA
50000 FT1000 KT
AIRCRAFT INFORMATION
Aircraft Type: B738SSW
Registration: N37267
SELCAL:  MSN/LN: 31586 / 939
Operator: UNITED AIRLINES
Flights: 32 Block Time: 77.2 Flight Time: 69.4
Fuel Used: 459482 LB
  • DEPARTURE INFORMATION
    Date: 2019-12-01
    Airport: KSFO
    Gate:  -
    Gate Departure: 18:53
    Takeoff: 19:05
    ARRIVAL INFORMATION
    Date: 2019-12-02
    Airport: PHNL
    Gate: 8
    Landing: 00:03
    Gate Arrival: 00:08
  • FLIGHT DATA
    Crew: DAN DOWNS
    Speed: 470 kts Altitude: 34000 ft
    Stage Length: 1125 nm
    Route: 
    Block Time: 5.3 Flight Time: 5
    Fuel Used: 31087 LB
  • AIRCRAFT INFORMATION
    Aircraft Type: B738SSW
    Registration: N37267
    SELCAL:  MSN/LN: 31586 / 939
    Operator: United Airlines
    Flights: 32 Block Time: 77.2 Flight Time: 69.4
    Fuel Used: 459482 LB

DATALINK LOG | Newest first | Current as of: 2020-09-27 20:09:13
LABEL SEQUENCE CONTENT Dn/Up
QD095300:08 8.2▼ Dn
QC043600:03▼ Dn
GA3145GATE 8▲ Up
GR2807PHNL --:-- HI-VAL NO DIPL/VIP NO▼ Dn
2U2459PHNL 012253Z 06016G24KT 10SM FEW023 SCT034 BKN045 BKN250 27/18 A2997 RMK AO2 SLP149 VCSH N-NE T02670178 $▲ Up
2S2459PHNL▼ Dn
2U2100PHOG 012154Z 04015G21KT 10SM SCT025 SCT045 26/19 A3002 RMK AO2 SLP171 T02560189 $▲ Up
2U2100PHNL 012153Z 04014G21KT 10SM FEW023 FEW035 SCT045 BKN250 27/18 A3000 RMK AO2 PK WND 03031/2127 SLP157 VCSH NE T02720178 $▲ Up
2S2100PHNL PHOG▼ Dn
QB064419:05▼ Dn
QA545918:53 39.3▼ Dn
A33408CLEARED TO PHNL VIA GAPP7 ALCOA R463 ALLBE R463 ADTIL R463 APACK MAGGI3. SQUAWK 1541.▲ Up
Q03257[LINK ACK]▲ Up
Q03045[LINK TEST]▼ Dn


AIRCRAFT HISTORY
FLIGHT DATE FLIGHT NO. ORIGIN DESTINATION ROUTE BLOCK TIME FLIGHT TIME FUEL USED (LB) PILOT
2020-07-25UAL727PTKK PGUM PTKK WUMVE GUNSS JUNIE OPLAR GUMGE FIGOR PGUM1.61.49106James Ward
2020-07-24UAL726PTPN PTKK PTPN BIRUQ MICNO RW041.217369James Ward
2020-07-24UAL725PTSA PTPN PTSA AXTEN RW091.217251James Ward
2020-07-23UAL724PKWA PTSA PKWA STEFF LECWI PTSA1.217399James Ward
2020-07-23UAL723PKMJ PKWA PKMJ OREEO RW061.10.97023James Ward
2020-06-19UAL157PHNL PKMJ PHNL OPIHI SEBYI SECJI ZUKEY BINJO CHOKO MCFLY MANRE MAZZA EFAHU RW074.94.626346Dan Downs
2020-03-23UAL155PKMJ PHNL 4.54.225435Dan Downs
2020-03-22UAL155PKWA PKMJ 0.80.75131Dan Downs
2020-03-22UAL155PTSA PKWA 1.216962Dan Downs
2020-03-22UAL155PTPN PTSA 10.86138Dan Downs
2020-03-21UAL155PTKK PTPN 1.217487Dan Downs
2020-03-21UAL155PGUM PTKK 1.71.49742Dan Downs
2020-03-18UAL184RPLL PGUM 3.43.118694Dan Downs
2020-02-02UAL183PGUM RPLL 3.63.320734Dan Downs
2020-01-29UAL197RJAA PGUM 4.13.523099Dan Downs
2019-12-10UAL603PTKK RJAA 4.94.525188Charles Harris
2019-12-10UAL154PTPN PTKK 1.21.16910Dan Downs
2019-12-09UAL154PTSA PTPN 1.10.96172Dan Downs
2019-12-09UAL154PKWA PTSA 1.216934Dan Downs
2019-12-02UAL157PKMJ PKWA 10.85325Dan Downs
2019-12-02UAL154PHNL PKMJ 5.24.928948Dan Downs
2019-12-01UAL2380KSFO PHNL 5.3531087Dan Downs
2019-11-30UAL1675KBWI KSFO 65.834158Michael Roth
2019-11-30UAL1061KSFO KBWI 4.44.425285Michael Roth
2019-11-29UAL2233KPDX KSFO 1.61.38130Michael Roth
2019-11-29UAL2390KORD KPDX 4.44.124361Michael Roth
2019-11-24UAL1598KBOS KORD 2.72.313456Michael Roth
2019-11-23UAL822KIAD KBOS 1.31.17183Dan Downs
2019-11-23UAL340KORD KIAD 1.81.49450Dan Downs
2019-11-22UAL1121KDEN KORD 2.41.911255Michael Roth
2019-11-17UAL3477KIAD KDEN 3.73.319144Aaron Buchanan
2019-11-14UAL1114KORD KIAD 1.71.38580Aaron Buchanan